sensor_id;sensor_type;location;lat;lon;timestamp;pressure;altitude;pressure_sealevel;temperature;humidity
16525;BME280;8375;33.594;-117.718;2023-04-01T00:01:33;100813.25;;;17.23;53.60
16525;BME280;8375;33.594;-117.718;2023-04-01T00:04:02;100809.63;;;17.34;52.77
16525;BME280;8375;33.594;-117.718;2023-04-01T00:06:33;100810.22;;;17.28;52.92
16525;BME280;8375;33.594;-117.718;2023-04-01T00:09:02;100798.84;;;17.37;53.64
16525;BME280;8375;33.594;-117.718;2023-04-01T00:11:30;100809.34;;;17.37;54.04
16525;BME280;8375;33.594;-117.718;2023-04-01T00:13:59;100800.06;;;17.15;53.58
16525;BME280;8375;33.594;-117.718;2023-04-01T00:16:28;100804.03;;;17.19;54.59
16525;BME280;8375;33.594;-117.718;2023-04-01T00:18:57;100794.00;;;17.14;51.84
16525;BME280;8375;33.594;-117.718;2023-04-01T00:21:26;100790.47;;;16.96;51.61
16525;BME280;8375;33.594;-117.718;2023-04-01T00:23:56;100792.72;;;16.91;53.92
16525;BME280;8375;33.594;-117.718;2023-04-01T00:26:25;100792.16;;;16.87;51.44
16525;BME280;8375;33.594;-117.718;2023-04-01T00:28:54;100803.31;;;16.89;53.02
16525;BME280;8375;33.594;-117.718;2023-04-01T00:31:23;100799.06;;;16.88;52.65
16525;BME280;8375;33.594;-117.718;2023-04-01T00:33:51;100803.66;;;16.76;52.22
16525;BME280;8375;33.594;-117.718;2023-04-01T00:36:21;100806.28;;;16.76;53.72
16525;BME280;8375;33.594;-117.718;2023-04-01T00:38:50;100794.97;;;16.76;54.99
16525;BME280;8375;33.594;-117.718;2023-04-01T00:41:21;100795.25;;;16.72;55.89
16525;BME280;8375;33.594;-117.718;2023-04-01T00:43:50;100792.78;;;16.71;56.04
16525;BME280;8375;33.594;-117.718;2023-04-01T00:46:19;100806.09;;;16.50;56.90
16525;BME280;8375;33.594;-117.718;2023-04-01T00:48:50;100802.66;;;16.39;58.56
16525;BME280;8375;33.594;-117.718;2023-04-01T00:51:23;100803.66;;;16.28;57.32
16525;BME280;8375;33.594;-117.718;2023-04-01T00:53:55;100797.38;;;16.02;58.24
16525;BME280;8375;33.594;-117.718;2023-04-01T00:56:30;100802.59;;;15.92;58.95
16525;BME280;8375;33.594;-117.718;2023-04-01T00:59:01;100802.13;;;15.77;60.17
16525;BME280;8375;33.594;-117.718;2023-04-01T01:01:31;100809.00;;;15.78;61.12
16525;BME280;8375;33.594;-117.718;2023-04-01T01:04:01;100814.25;;;15.78;60.77
16525;BME280;8375;33.594;-117.718;2023-04-01T01:06:39;100809.31;;;15.84;61.57
16525;BME280;8375;33.594;-117.718;2023-04-01T01:09:23;100812.25;;;15.91;61.14
16525;BME280;8375;33.594;-117.718;2023-04-01T01:12:02;100808.38;;;15.95;63.39
16525;BME280;8375;33.594;-117.718;2023-04-01T01:14:40;100808.25;;;16.07;66.91
16525;BME280;8375;33.594;-117.718;2023-04-01T01:17:19;100806.19;;;16.01;61.23
16525;BME280;8375;33.594;-117.718;2023-04-01T01:20:16;100796.63;;;15.70;60.73
16525;BME280;8375;33.594;-117.718;2023-04-01T01:23:06;100791.50;;;15.49;59.23
16525;BME280;8375;33.594;-117.718;2023-04-01T01:25:45;100782.09;;;15.17;62.19
16525;BME280;8375;33.594;-117.718;2023-04-01T01:28:35;100784.91;;;14.94;61.41
16525;BME280;8375;33.594;-117.718;2023-04-01T01:31:15;100785.88;;;14.93;64.06
16525;BME280;8375;33.594;-117.718;2023-04-01T01:33:58;100794.53;;;14.93;63.23
16525;BME280;8375;33.594;-117.718;2023-04-01T01:36:32;100797.97;;;14.94;62.92
16525;BME280;8375;33.594;-117.718;2023-04-01T01:39:03;100795.09;;;14.97;64.46
16525;BME280;8375;33.594;-117.718;2023-04-01T01:41:35;100782.00;;;14.87;64.51
16525;BME280;8375;33.594;-117.718;2023-04-01T01:44:07;100786.28;;;14.88;63.64
16525;BME280;8375;33.594;-117.718;2023-04-01T01:46:38;100782.13;;;14.86;63.13
16525;BME280;8375;33.594;-117.718;2023-04-01T01:49:11;100785.84;;;14.83;63.91
16525;BME280;8375;33.594;-117.718;2023-04-01T01:51:42;100783.59;;;14.78;64.43
16525;BME280;8375;33.594;-117.718;2023-04-01T01:54:12;100781.13;;;14.77;67.57
16525;BME280;8375;33.594;-117.718;2023-04-01T01:56:42;100786.38;;;14.77;67.20
16525;BME280;8375;33.594;-117.718;2023-04-01T01:59:12;100778.44;;;14.67;65.21
16525;BME280;8375;33.594;-117.718;2023-04-01T02:01:45;100777.28;;;14.50;65.99
16525;BME280;8375;33.594;-117.718;2023-04-01T02:04:15;100764.91;;;14.31;67.23
16525;BME280;8375;33.594;-117.718;2023-04-01T02:06:51;100762.44;;;14.08;67.97
16525;BME280;8375;33.594;-117.718;2023-04-01T02:09:22;100760.94;;;14.05;68.72
16525;BME280;8375;33.594;-117.718;2023-04-01T02:11:52;100768.50;;;14.08;68.49
16525;BME280;8375;33.594;-117.718;2023-04-01T02:14:26;100774.94;;;14.04;69.60
16525;BME280;8375;33.594;-117.718;2023-04-01T02:16:57;100768.81;;;14.15;72.94
16525;BME280;8375;33.594;-117.718;2023-04-01T02:19:29;100775.19;;;14.22;74.48
16525;BME280;8375;33.594;-117.718;2023-04-01T02:22:04;100767.09;;;14.26;72.52
16525;BME280;8375;33.594;-117.718;2023-04-01T02:24:34;100765.94;;;14.18;71.63
16525;BME280;8375;33.594;-117.718;2023-04-01T02:27:04;100757.56;;;14.15;70.87
16525;BME280;8375;33.594;-117.718;2023-04-01T02:29:33;100751.56;;;14.03;70.68
16525;BME280;8375;33.594;-117.718;2023-04-01T02:32:03;100753.22;;;13.83;70.09
16525;BME280;8375;33.594;-117.718;2023-04-01T02:34:33;100751.22;;;13.75;70.39
16525;BME280;8375;33.594;-117.718;2023-04-01T02:37:03;100757.72;;;13.81;71.87
16525;BME280;8375;33.594;-117.718;2023-04-01T02:39:32;100762.94;;;13.81;73.72
16525;BME280;8375;33.594;-117.718;2023-04-01T02:42:01;100756.88;;;13.80;72.43
16525;BME280;8375;33.594;-117.718;2023-04-01T02:44:30;100749.44;;;13.75;72.38
16525;BME280;8375;33.594;-117.718;2023-04-01T02:46:58;100744.97;;;13.66;72.42
16525;BME280;8375;33.594;-117.718;2023-04-01T02:49:27;100743.03;;;13.47;73.14
16525;BME280;8375;33.594;-117.718;2023-04-01T02:51:55;100738.91;;;13.44;73.27
16525;BME280;8375;33.594;-117.718;2023-04-01T02:54:26;100744.31;;;13.53;74.45
16525;BME280;8375;33.594;-117.718;2023-04-01T02:56:54;100740.88;;;13.52;73.98
16525;BME280;8375;33.594;-117.718;2023-04-01T02:59:23;100742.53;;;13.53;74.48
16525;BME280;8375;33.594;-117.718;2023-04-01T03:01:52;100736.69;;;13.61;74.52
16525;BME280;8375;33.594;-117.718;2023-04-01T03:04:20;100748.34;;;13.57;74.73
16525;BME280;8375;33.594;-117.718;2023-04-01T03:06:49;100743.63;;;13.51;74.08
16525;BME280;8375;33.594;-117.718;2023-04-01T03:09:17;100746.72;;;13.44;75.03
16525;BME280;8375;33.594;-117.718;2023-04-01T03:11:48;100738.75;;;13.46;74.62
16525;BME280;8375;33.594;-117.718;2023-04-01T03:14:16;100744.44;;;13.40;74.61
16525;BME280;8375;33.594;-117.718;2023-04-01T03:16:45;100747.53;;;13.33;74.78
16525;BME280;8375;33.594;-117.718;2023-04-01T03:19:14;100744.94;;;13.33;76.03
16525;BME280;8375;33.594;-117.718;2023-04-01T03:21:42;100748.69;;;13.41;77.85
16525;BME280;8375;33.594;-117.718;2023-04-01T03:24:11;100747.06;;;13.28;77.30
16525;BME280;8375;33.594;-117.718;2023-04-01T03:26:39;100746.47;;;13.25;76.67
16525;BME280;8375;33.594;-117.718;2023-04-01T03:29:10;100740.09;;;13.17;75.98
16525;BME280;8375;33.594;-117.718;2023-04-01T03:31:38;100740.00;;;13.08;76.71
16525;BME280;8375;33.594;-117.718;2023-04-01T03:34:07;100734.69;;;12.98;76.92
16525;BME280;8375;33.594;-117.718;2023-04-01T03:36:36;100736.72;;;12.94;77.83
16525;BME280;8375;33.594;-117.718;2023-04-01T03:39:05;100736.81;;;13.04;79.17
16525;BME280;8375;33.594;-117.718;2023-04-01T03:41:35;100728.88;;;13.05;77.78
16525;BME280;8375;33.594;-117.718;2023-04-01T03:44:04;100733.16;;;12.95;77.65
16525;BME280;8375;33.594;-117.718;2023-04-01T03:46:35;100733.41;;;12.92;78.40
16525;BME280;8375;33.594;-117.718;2023-04-01T03:49:06;100741.22;;;12.92;78.22
16525;BME280;8375;33.594;-117.718;2023-04-01T03:51:38;100756.84;;;12.92;79.51
16525;BME280;8375;33.594;-117.718;2023-04-01T03:54:06;100745.59;;;12.91;79.47
16525;BME280;8375;33.594;-117.718;2023-04-01T03:56:35;100753.28;;;12.93;80.34
16525;BME280;8375;33.594;-117.718;2023-04-01T03:59:05;100755.28;;;12.89;80.08
16525;BME280;8375;33.594;-117.718;2023-04-01T04:01:36;100758.38;;;12.72;79.35
16525;BME280;8375;33.594;-117.718;2023-04-01T04:04:04;100762.63;;;12.73;79.19
16525;BME280;8375;33.594;-117.718;2023-04-01T04:06:33;100751.66;;;12.69;78.70
16525;BME280;8375;33.594;-117.718;2023-04-01T04:09:02;100759.22;;;12.61;78.87
16525;BME280;8375;33.594;-117.718;2023-04-01T04:11:31;100752.13;;;12.63;78.88
16525;BME280;8375;33.594;-117.718;2023-04-01T04:14:00;100756.00;;;12.57;79.67
16525;BME280;8375;33.594;-117.718;2023-04-01T04:16:29;100761.13;;;12.59;78.39
16525;BME280;8375;33.594;-117.718;2023-04-01T04:19:00;100751.16;;;12.53;77.85
16525;BME280;8375;33.594;-117.718;2023-04-01T04:21:31;100761.81;;;12.50;77.59
16525;BME280;8375;33.594;-117.718;2023-04-01T04:24:03;100760.25;;;12.47;76.70
16525;BME280;8375;33.594;-117.718;2023-04-01T04:26:31;100755.75;;;12.49;78.19
16525;BME280;8375;33.594;-117.718;2023-04-01T04:29:00;100757.41;;;12.50;78.45
16525;BME280;8375;33.594;-117.718;2023-04-01T04:31:29;100762.84;;;12.47;77.63
16525;BME280;8375;33.594;-117.718;2023-04-01T04:34:00;100764.16;;;12.41;78.14
16525;BME280;8375;33.594;-117.718;2023-04-01T04:36:29;100769.38;;;12.41;75.85
16525;BME280;8375;33.594;-117.718;2023-04-01T04:38:58;100768.44;;;12.42;75.88
16525;BME280;8375;33.594;-117.718;2023-04-01T04:41:28;100775.38;;;12.30;74.60
16525;BME280;8375;33.594;-117.718;2023-04-01T04:43:57;100771.81;;;12.31;75.29
16525;BME280;8375;33.594;-117.718;2023-04-01T04:46:26;100768.28;;;12.32;75.16
16525;BME280;8375;33.594;-117.718;2023-04-01T04:48:54;100773.50;;;12.32;75.96
16525;BME280;8375;33.594;-117.718;2023-04-01T04:51:25;100767.00;;;12.27;76.49
16525;BME280;8375;33.594;-117.718;2023-04-01T04:53:53;100769.09;;;12.22;75.99
16525;BME280;8375;33.594;-117.718;2023-04-01T04:56:23;100766.50;;;12.22;75.88
16525;BME280;8375;33.594;-117.718;2023-04-01T04:58:52;100770.38;;;12.16;75.00
16525;BME280;8375;33.594;-117.718;2023-04-01T05:01:22;100772.50;;;12.11;76.35
16525;BME280;8375;33.594;-117.718;2023-04-01T05:03:50;100775.22;;;12.09;76.59
16525;BME280;8375;33.594;-117.718;2023-04-01T05:06:20;100771.41;;;12.02;77.43
16525;BME280;8375;33.594;-117.718;2023-04-01T05:08:50;100766.31;;;12.00;78.56
16525;BME280;8375;33.594;-117.718;2023-04-01T05:11:19;100772.28;;;11.89;77.45
16525;BME280;8375;33.594;-117.718;2023-04-01T05:13:48;100769.28;;;11.83;78.08
16525;BME280;8375;33.594;-117.718;2023-04-01T05:16:19;100764.44;;;11.78;78.59
16525;BME280;8375;33.594;-117.718;2023-04-01T05:18:48;100769.38;;;11.70;78.65
16525;BME280;8375;33.594;-117.718;2023-04-01T05:21:17;100775.75;;;11.66;79.35
16525;BME280;8375;33.594;-117.718;2023-04-01T05:23:45;100773.34;;;11.63;79.55
16525;BME280;8375;33.594;-117.718;2023-04-01T05:26:16;100789.06;;;11.61;79.56
16525;BME280;8375;33.594;-117.718;2023-04-01T05:28:44;100786.13;;;11.41;80.58
16525;BME280;8375;33.594;-117.718;2023-04-01T05:31:14;100785.00;;;11.33;80.70
16525;BME280;8375;33.594;-117.718;2023-04-01T05:33:42;100781.47;;;11.34;82.36
16525;BME280;8375;33.594;-117.718;2023-04-01T05:36:13;100782.94;;;11.25;82.26
16525;BME280;8375;33.594;-117.718;2023-04-01T05:38:42;100782.44;;;11.20;83.23
16525;BME280;8375;33.594;-117.718;2023-04-01T05:41:12;100783.38;;;11.19;83.51
16525;BME280;8375;33.594;-117.718;2023-04-01T05:43:43;100786.59;;;11.22;83.64
16525;BME280;8375;33.594;-117.718;2023-04-01T05:46:11;100787.03;;;11.16;83.35
16525;BME280;8375;33.594;-117.718;2023-04-01T05:48:40;100779.53;;;11.11;83.34
16525;BME280;8375;33.594;-117.718;2023-04-01T05:51:13;100780.09;;;11.04;84.11
16525;BME280;8375;33.594;-117.718;2023-04-01T05:53:42;100772.38;;;11.02;84.26
16525;BME280;8375;33.594;-117.718;2023-04-01T05:56:10;100776.03;;;10.99;84.75
16525;BME280;8375;33.594;-117.718;2023-04-01T05:58:40;100780.94;;;10.91;84.99
16525;BME280;8375;33.594;-117.718;2023-04-01T06:01:11;100775.03;;;10.89;84.93
16525;BME280;8375;33.594;-117.718;2023-04-01T06:03:39;100779.91;;;10.81;86.04
16525;BME280;8375;33.594;-117.718;2023-04-01T06:06:13;100778.34;;;10.78;86.07
16525;BME280;8375;33.594;-117.718;2023-04-01T06:08:43;100779.59;;;10.73;86.50
16525;BME280;8375;33.594;-117.718;2023-04-01T06:11:20;100778.16;;;10.68;86.57
16525;BME280;8375;33.594;-117.718;2023-04-01T06:14:18;100782.84;;;10.63;86.62
16525;BME280;8375;33.594;-117.718;2023-04-01T06:17:02;100786.97;;;10.66;87.45
16525;BME280;8375;33.594;-117.718;2023-04-01T06:19:40;100789.13;;;10.59;87.58
16525;BME280;8375;33.594;-117.718;2023-04-01T06:22:27;100789.34;;;10.56;87.69
16525;BME280;8375;33.594;-117.718;2023-04-01T06:25:32;100782.69;;;10.52;87.75
16525;BME280;8375;33.594;-117.718;2023-04-01T06:31:12;100783.09;;;10.46;87.86
16525;BME280;8375;33.594;-117.718;2023-04-01T06:34:02;100769.06;;;10.35;88.67
16525;BME280;8375;33.594;-117.718;2023-04-01T06:36:56;100780.28;;;10.36;89.50
16525;BME280;8375;33.594;-117.718;2023-04-01T06:39:47;100783.53;;;10.39;89.86
16525;BME280;8375;33.594;-117.718;2023-04-01T06:42:40;100774.44;;;10.32;90.05
16525;BME280;8375;33.594;-117.718;2023-04-01T06:45:25;100782.56;;;10.27;90.43
16525;BME280;8375;33.594;-117.718;2023-04-01T06:48:10;100779.31;;;10.24;90.78
16525;BME280;8375;33.594;-117.718;2023-04-01T06:50:50;100788.03;;;10.23;90.22
16525;BME280;8375;33.594;-117.718;2023-04-01T06:53:25;100778.91;;;10.17;89.93
16525;BME280;8375;33.594;-117.718;2023-04-01T06:56:01;100776.81;;;10.09;90.26
16525;BME280;8375;33.594;-117.718;2023-04-01T06:58:35;100782.94;;;10.08;90.43
16525;BME280;8375;33.594;-117.718;2023-04-01T07:01:08;100783.78;;;10.09;90.88
16525;BME280;8375;33.594;-117.718;2023-04-01T07:03:41;100789.88;;;10.08;91.00
16525;BME280;8375;33.594;-117.718;2023-04-01T07:06:16;100785.91;;;10.02;90.83
16525;BME280;8375;33.594;-117.718;2023-04-01T07:08:49;100781.34;;;9.93;90.66
16525;BME280;8375;33.594;-117.718;2023-04-01T07:11:24;100791.47;;;9.83;91.01
16525;BME280;8375;33.594;-117.718;2023-04-01T07:13:57;100780.66;;;9.76;91.24
16525;BME280;8375;33.594;-117.718;2023-04-01T07:16:31;100777.72;;;9.68;91.98
16525;BME280;8375;33.594;-117.718;2023-04-01T07:19:04;100786.16;;;9.72;91.71
16525;BME280;8375;33.594;-117.718;2023-04-01T07:21:39;100795.13;;;9.66;92.07
16525;BME280;8375;33.594;-117.718;2023-04-01T07:24:15;100788.41;;;9.63;91.76
16525;BME280;8375;33.594;-117.718;2023-04-01T07:26:45;100792.13;;;9.59;92.31
16525;BME280;8375;33.594;-117.718;2023-04-01T07:29:14;100790.84;;;9.52;92.61
16525;BME280;8375;33.594;-117.718;2023-04-01T07:31:57;100787.22;;;9.54;93.29
16525;BME280;8375;33.594;-117.718;2023-04-01T07:34:36;100790.91;;;9.50;92.96
16525;BME280;8375;33.594;-117.718;2023-04-01T07:37:14;100790.31;;;9.47;92.20
16525;BME280;8375;33.594;-117.718;2023-04-01T07:39:52;100790.56;;;9.42;92.52
16525;BME280;8375;33.594;-117.718;2023-04-01T07:42:31;100787.06;;;9.43;92.21
16525;BME280;8375;33.594;-117.718;2023-04-01T07:45:11;100777.06;;;9.37;92.07
16525;BME280;8375;33.594;-117.718;2023-04-01T07:48:06;100782.75;;;9.29;93.02
16525;BME280;8375;33.594;-117.718;2023-04-01T07:50:42;100780.97;;;9.30;92.98
16525;BME280;8375;33.594;-117.718;2023-04-01T07:53:22;100782.00;;;9.27;93.07
16525;BME280;8375;33.594;-117.718;2023-04-01T07:56:01;100781.28;;;9.25;92.66
16525;BME280;8375;33.594;-117.718;2023-04-01T07:58:39;100780.91;;;9.17;92.37
16525;BME280;8375;33.594;-117.718;2023-04-01T08:01:14;100774.50;;;9.22;93.82
16525;BME280;8375;33.594;-117.718;2023-04-01T08:04:07;100768.72;;;9.19;93.39
16525;BME280;8375;33.594;-117.718;2023-04-01T08:06:42;100764.72;;;9.13;93.18
16525;BME280;8375;33.594;-117.718;2023-04-01T08:09:24;100759.72;;;9.10;93.16
16525;BME280;8375;33.594;-117.718;2023-04-01T08:12:04;100757.31;;;9.07;93.15
16525;BME280;8375;33.594;-117.718;2023-04-01T08:14:45;100761.34;;;8.98;93.91
16525;BME280;8375;33.594;-117.718;2023-04-01T08:17:20;100758.66;;;8.85;95.24
16525;BME280;8375;33.594;-117.718;2023-04-01T08:20:00;100752.28;;;8.91;96.01
16525;BME280;8375;33.594;-117.718;2023-04-01T08:22:35;100745.44;;;8.90;95.08
16525;BME280;8375;33.594;-117.718;2023-04-01T08:25:16;100747.66;;;8.82;95.23
16525;BME280;8375;33.594;-117.718;2023-04-01T08:27:47;100746.91;;;8.79;95.14
16525;BME280;8375;33.594;-117.718;2023-04-01T08:30:20;100743.03;;;8.72;95.75
16525;BME280;8375;33.594;-117.718;2023-04-01T08:32:52;100738.66;;;8.87;98.67
16525;BME280;8375;33.594;-117.718;2023-04-01T08:35:28;100741.44;;;8.84;97.83
16525;BME280;8375;33.594;-117.718;2023-04-01T08:38:02;100745.16;;;8.80;97.42
16525;BME280;8375;33.594;-117.718;2023-04-01T08:41:00;100735.91;;;8.76;97.38
16525;BME280;8375;33.594;-117.718;2023-04-01T08:43:49;100739.03;;;8.66;97.63
16525;BME280;8375;33.594;-117.718;2023-04-01T08:47:03;100734.06;;;8.63;98.34
16525;BME280;8375;33.594;-117.718;2023-04-01T08:52:35;100730.28;;;8.69;98.58
16525;BME280;8375;33.594;-117.718;2023-04-01T08:55:38;100731.03;;;8.71;99.16
16525;BME280;8375;33.594;-117.718;2023-04-01T09:04:26;100711.25;;;8.56;100.00
16525;BME280;8375;33.594;-117.718;2023-04-01T09:07:14;100706.84;;;8.42;100.00
16525;BME280;8375;33.594;-117.718;2023-04-01T09:10:11;100708.00;;;8.52;100.00
16525;BME280;8375;33.594;-117.718;2023-04-01T09:12:58;100706.50;;;8.62;100.00
16525;BME280;8375;33.594;-117.718;2023-04-01T09:15:46;100705.03;;;8.58;100.00
16525;BME280;8375;33.594;-117.718;2023-04-01T09:19:11;100697.34;;;8.42;100.00
16525;BME280;8375;33.594;-117.718;2023-04-01T09:21:56;100686.69;;;8.32;99.88
16525;BME280;8375;33.594;-117.718;2023-04-01T09:24:52;100688.34;;;8.19;99.70
16525;BME280;8375;33.594;-117.718;2023-04-01T09:27:27;100687.41;;;8.05;100.00
16525;BME280;8375;33.594;-117.718;2023-04-01T09:30:22;100679.56;;;8.07;100.00
16525;BME280;8375;33.594;-117.718;2023-04-01T09:36:03;100671.63;;;8.10;100.00
16525;BME280;8375;33.594;-117.718;2023-04-01T09:38:47;100667.84;;;8.16;100.00
16525;BME280;8375;33.594;-117.718;2023-04-01T09:41:27;100667.47;;;8.07;100.00
16525;BME280;8375;33.594;-117.718;2023-04-01T09:44:01;100660.16;;;8.00;100.00
16525;BME280;8375;33.594;-117.718;2023-04-01T09:46:48;100662.63;;;7.87;100.00
16525;BME280;8375;33.594;-117.718;2023-04-01T09:52:24;100665.66;;;7.93;100.00
16525;BME280;8375;33.594;-117.718;2023-04-01T09:55:21;100668.97;;;7.81;100.00
16525;BME280;8375;33.594;-117.718;2023-04-01T09:58:25;100666.56;;;7.78;100.00
16525;BME280;8375;33.594;-117.718;2023-04-01T10:01:45;100668.34;;;7.61;100.00
16525;BME280;8375;33.594;-117.718;2023-04-01T10:04:53;100668.63;;;7.57;100.00
16525;BME280;8375;33.594;-117.718;2023-04-01T10:07:49;100661.97;;;7.53;100.00
16525;BME280;8375;33.594;-117.718;2023-04-01T10:11:13;100659.91;;;7.43;100.00
16525;BME280;8375;33.594;-117.718;2023-04-01T10:14:06;100669.56;;;7.40;100.00
16525;BME280;8375;33.594;-117.718;2023-04-01T10:23:19;100648.34;;;7.34;100.00
16525;BME280;8375;33.594;-117.718;2023-04-01T10:26:23;100654.41;;;7.33;100.00
16525;BME280;8375;33.594;-117.718;2023-04-01T10:29:38;100651.94;;;7.32;100.00
16525;BME280;8375;33.594;-117.718;2023-04-01T10:32:38;100662.25;;;7.32;100.00
16525;BME280;8375;33.594;-117.718;2023-04-01T10:38:51;100658.84;;;7.31;100.00
16525;BME280;8375;33.594;-117.718;2023-04-01T10:41:52;100660.44;;;7.34;100.00
16525;BME280;8375;33.594;-117.718;2023-04-01T10:47:44;100664.69;;;7.35;100.00
16525;BME280;8375;33.594;-117.718;2023-04-01T10:50:47;100668.00;;;7.21;100.00
16525;BME280;8375;33.594;-117.718;2023-04-01T10:53:39;100664.44;;;7.08;100.00
16525;BME280;8375;33.594;-117.718;2023-04-01T10:56:34;100666.03;;;7.10;100.00
16525;BME280;8375;33.594;-117.718;2023-04-01T11:05:50;100663.44;;;7.26;100.00
16525;BME280;8375;33.594;-117.718;2023-04-01T11:18:01;100656.03;;;7.04;100.00
16525;BME280;8375;33.594;-117.718;2023-04-01T11:21:17;100655.88;;;6.91;100.00
16525;BME280;8375;33.594;-117.718;2023-04-01T11:24:14;100669.09;;;6.85;100.00
16525;BME280;8375;33.594;-117.718;2023-04-01T11:26:53;100668.44;;;6.81;100.00
16525;BME280;8375;33.594;-117.718;2023-04-01T11:29:44;100668.50;;;6.80;100.00
16525;BME280;8375;33.594;-117.718;2023-04-01T11:32:29;100669.19;;;6.83;100.00
16525;BME280;8375;33.594;-117.718;2023-04-01T11:38:04;100659.63;;;6.85;100.00
16525;BME280;8375;33.594;-117.718;2023-04-01T11:40:39;100657.78;;;6.87;100.00
16525;BME280;8375;33.594;-117.718;2023-04-01T11:43:16;100662.47;;;6.97;100.00
16525;BME280;8375;33.594;-117.718;2023-04-01T11:45:53;100662.19;;;7.17;100.00
16525;BME280;8375;33.594;-117.718;2023-04-01T11:48:38;100658.28;;;7.10;100.00
16525;BME280;8375;33.594;-117.718;2023-04-01T11:51:36;100664.44;;;7.08;100.00
16525;BME280;8375;33.594;-117.718;2023-04-01T11:54:19;100655.84;;;7.39;100.00
16525;BME280;8375;33.594;-117.718;2023-04-01T11:57:00;100654.28;;;7.51;100.00
16525;BME280;8375;33.594;-117.718;2023-04-01T12:00:02;100660.25;;;7.37;100.00
16525;BME280;8375;33.594;-117.718;2023-04-01T12:02:50;100647.53;;;7.34;100.00
16525;BME280;8375;33.594;-117.718;2023-04-01T12:05:38;100654.13;;;7.24;100.00
16525;BME280;8375;33.594;-117.718;2023-04-01T12:08:21;100654.34;;;7.19;100.00
16525;BME280;8375;33.594;-117.718;2023-04-01T12:10:57;100649.97;;;7.05;100.00
16525;BME280;8375;33.594;-117.718;2023-04-01T12:13:36;100643.22;;;7.18;100.00
16525;BME280;8375;33.594;-117.718;2023-04-01T12:16:29;100639.59;;;7.21;100.00
16525;BME280;8375;33.594;-117.718;2023-04-01T12:19:15;100635.19;;;7.23;100.00
16525;BME280;8375;33.594;-117.718;2023-04-01T12:21:52;100633.88;;;7.16;100.00
16525;BME280;8375;33.594;-117.718;2023-04-01T12:24:46;100634.66;;;7.02;100.00
16525;BME280;8375;33.594;-117.718;2023-04-01T12:27:35;100636.66;;;6.97;100.00
16525;BME280;8375;33.594;-117.718;2023-04-01T12:33:31;100626.81;;;6.71;100.00
16525;BME280;8375;33.594;-117.718;2023-04-01T12:36:09;100627.13;;;6.65;100.00
16525;BME280;8375;33.594;-117.718;2023-04-01T12:38:51;100632.41;;;6.64;100.00
16525;BME280;8375;33.594;-117.718;2023-04-01T12:41:31;100629.47;;;6.70;100.00
16525;BME280;8375;33.594;-117.718;2023-04-01T12:44:15;100632.06;;;6.70;100.00
16525;BME280;8375;33.594;-117.718;2023-04-01T12:47:04;100629.22;;;7.07;100.00
16525;BME280;8375;33.594;-117.718;2023-04-01T12:49:55;100628.41;;;7.06;100.00
16525;BME280;8375;33.594;-117.718;2023-04-01T12:52:35;100630.72;;;6.79;100.00
16525;BME280;8375;33.594;-117.718;2023-04-01T12:55:32;100633.38;;;6.45;100.00
16525;BME280;8375;33.594;-117.718;2023-04-01T12:58:39;100631.38;;;6.16;100.00
16525;BME280;8375;33.594;-117.718;2023-04-01T13:01:38;100631.22;;;6.20;100.00
16525;BME280;8375;33.594;-117.718;2023-04-01T13:07:30;100632.00;;;6.04;100.00
16525;BME280;8375;33.594;-117.718;2023-04-01T13:10:07;100638.44;;;6.13;100.00
16525;BME280;8375;33.594;-117.718;2023-04-01T13:15:53;100637.06;;;6.23;100.00
16525;BME280;8375;33.594;-117.718;2023-04-01T13:18:31;100643.88;;;6.24;100.00
16525;BME280;8375;33.594;-117.718;2023-04-01T13:21:10;100642.34;;;6.38;100.00
16525;BME280;8375;33.594;-117.718;2023-04-01T13:23:53;100655.84;;;6.43;100.00
16525;BME280;8375;33.594;-117.718;2023-04-01T13:26:27;100657.38;;;6.29;100.00
16525;BME280;8375;33.594;-117.718;2023-04-01T13:29:03;100651.53;;;6.26;100.00
16525;BME280;8375;33.594;-117.718;2023-04-01T13:31:53;100648.28;;;6.22;100.00
16525;BME280;8375;33.594;-117.718;2023-04-01T13:34:41;100648.31;;;6.05;100.00
16525;BME280;8375;33.594;-117.718;2023-04-01T13:37:25;100658.91;;;5.98;100.00
16525;BME280;8375;33.594;-117.718;2023-04-01T13:40:10;100661.41;;;6.00;100.00
16525;BME280;8375;33.594;-117.718;2023-04-01T13:42:47;100661.97;;;6.07;100.00
16525;BME280;8375;33.594;-117.718;2023-04-01T13:45:21;100672.25;;;6.24;100.00
16525;BME280;8375;33.594;-117.718;2023-04-01T13:48:31;100679.50;;;6.34;100.00
16525;BME280;8375;33.594;-117.718;2023-04-01T13:51:24;100676.34;;;6.28;100.00
16525;BME280;8375;33.594;-117.718;2023-04-01T13:57:20;100684.75;;;6.32;100.00
16525;BME280;8375;33.594;-117.718;2023-04-01T14:09:20;100704.13;;;9.43;97.41
16525;BME280;8375;33.594;-117.718;2023-04-01T14:11:59;100704.63;;;11.05;85.95
16525;BME280;8375;33.594;-117.718;2023-04-01T14:14:47;100707.22;;;12.71;75.77
16525;BME280;8375;33.594;-117.718;2023-04-01T14:17:37;100715.53;;;14.18;67.61
16525;BME280;8375;33.594;-117.718;2023-04-01T14:20:27;100720.59;;;15.72;61.02
16525;BME280;8375;33.594;-117.718;2023-04-01T14:23:32;100729.44;;;17.04;55.81
16525;BME280;8375;33.594;-117.718;2023-04-01T14:26:30;100728.59;;;18.46;50.84
16525;BME280;8375;33.594;-117.718;2023-04-01T14:29:12;100730.91;;;19.69;47.77
16525;BME280;8375;33.594;-117.718;2023-04-01T14:31:50;100730.53;;;20.61;45.13
16525;BME280;8375;33.594;-117.718;2023-04-01T14:34:34;100738.56;;;21.39;42.30
16525;BME280;8375;33.594;-117.718;2023-04-01T14:37:28;100736.31;;;22.28;40.69
16525;BME280;8375;33.594;-117.718;2023-04-01T14:40:28;100736.22;;;22.66;39.38